This is the latest recevied weather packets stored in our database for station/object DF9PV-5. If no packets are shown the sender has not sent any weather packets the latest 10 day(s).
| Time | Temp. | Humidity | Pressure | Rain* | Wind** | Luminosity | Snow |
|---|---|---|---|---|---|---|---|
| 1777167033 | 4.44° C | 79% | 1021.9 hPa | 0 mm | - | - | - |
| 1777166428 | 5° C | 78% | 1021.8 hPa | 0 mm | - | - | - |
| 1777165529 | 5° C | 78% | 1021.7 hPa | 0 mm | - | - | - |
| 1777164639 | 5° C | 78% | 1021.6 hPa | 0 mm | - | - | - |
| 1777164319 | 5° C | 77% | 1021.5 hPa | 0 mm | - | - | - |
| 1777161056 | 5.56° C | 76% | 1021.2 hPa | 0 mm | - | - | - |
| 1777160446 | 6.11° C | 75% | 1021.1 hPa | 0 mm | - | - | - |
| 1777159839 | 6.11° C | 74% | 1021 hPa | 0 mm | - | - | - |
| 1777156538 | 6.67° C | 71% | 1020.8 hPa | 0 mm | - | - | - |
| 1777151738 | 8.33° C | 63% | 1020.2 hPa | 0 mm | - | - | - |
| 1777151434 | 8.33° C | 65% | 1020.2 hPa | 0 mm | - | - | - |
| 1777149919 | 8.89° C | 63% | 1020.1 hPa | 0 mm | - | - | - |
| 1777148730 | 9.44° C | 60% | 1020 hPa | 0 mm | - | - | - |
| 1777146634 | 11.11° C | 53% | 1020 hPa | 0 mm | - | - | - |
| 1777146355 | 11.67° C | 51% | 1019.9 hPa | 0 mm | - | - | - |
| 1777146046 | 11.67° C | 47% | 1019.9 hPa | 0 mm | - | - | - |
| 1777144522 | 12.22° C | 45% | 1019.6 hPa | 0 mm | - | - | - |
| 1777144223 | 12.22° C | 44% | 1019.6 hPa | 0 mm | - | - | - |
| 1777143050 | 13.33° C | 41% | 1019.3 hPa | 0 mm | - | - | - |
| 1777137629 | 18.33° C | 28% | 1018.3 hPa | 0 mm | - | - | - |
| 1777134925 | 19.44° C | 25% | 1018.2 hPa | 0 mm | - | - | - |
| 1777133722 | 19.44° C | 24% | 1018.2 hPa | 0 mm | - | - | - |
| 1777131626 | 18.89° C | 27% | 1018.1 hPa | 0 mm | - | - | - |
| 1777130143 | 18.89° C | 27% | 1018.2 hPa | 0 mm | - | - | - |
| 1777128922 | 19.44° C | 27% | 1018.2 hPa | 0 mm | - | - | - |
* Rain latest hour (hover to see other rain measurements)
** Current wind speed in m/s (hover to see current wind gust speed)